sensor_id;sensor_type;location;lat;lon;timestamp;P1;durP1;ratioP1;P2;durP2;ratioP2
422;SDS011;198;48.752;9.180;2022-11-15T00:00:17;5.43;;;2.10;;
422;SDS011;198;48.752;9.180;2022-11-15T00:02:42;4.37;;;2.30;;
422;SDS011;198;48.752;9.180;2022-11-15T00:05:08;4.57;;;2.80;;
422;SDS011;198;48.752;9.180;2022-11-15T00:07:33;3.00;;;1.77;;
422;SDS011;198;48.752;9.180;2022-11-15T00:09:59;3.40;;;2.47;;
422;SDS011;198;48.752;9.180;2022-11-15T00:12:26;4.20;;;2.57;;
422;SDS011;198;48.752;9.180;2022-11-15T00:14:52;8.30;;;2.30;;
422;SDS011;198;48.752;9.180;2022-11-15T00:17:18;3.73;;;2.23;;
422;SDS011;198;48.752;9.180;2022-11-15T00:19:43;8.93;;;2.43;;
422;SDS011;198;48.752;9.180;2022-11-15T00:22:09;4.70;;;2.70;;
422;SDS011;198;48.752;9.180;2022-11-15T00:24:35;4.33;;;2.50;;
422;SDS011;198;48.752;9.180;2022-11-15T00:27:00;3.77;;;2.07;;
422;SDS011;198;48.752;9.180;2022-11-15T00:29:26;3.67;;;1.97;;
422;SDS011;198;48.752;9.180;2022-11-15T00:31:52;4.00;;;2.50;;
422;SDS011;198;48.752;9.180;2022-11-15T00:34:17;4.20;;;2.30;;
422;SDS011;198;48.752;9.180;2022-11-15T00:36:43;3.03;;;1.90;;
422;SDS011;198;48.752;9.180;2022-11-15T00:39:08;4.30;;;1.80;;
422;SDS011;198;48.752;9.180;2022-11-15T00:41:34;6.23;;;2.40;;
422;SDS011;198;48.752;9.180;2022-11-15T00:43:59;8.23;;;2.13;;
422;SDS011;198;48.752;9.180;2022-11-15T00:46:25;6.60;;;1.90;;
422;SDS011;198;48.752;9.180;2022-11-15T00:48:50;6.47;;;2.20;;
422;SDS011;198;48.752;9.180;2022-11-15T00:51:16;4.63;;;2.20;;
422;SDS011;198;48.752;9.180;2022-11-15T00:53:41;1.47;;;1.30;;
422;SDS011;198;48.752;9.180;2022-11-15T00:56:07;2.10;;;1.80;;
422;SDS011;198;48.752;9.180;2022-11-15T00:58:32;2.43;;;1.80;;
422;SDS011;198;48.752;9.180;2022-11-15T01:01:11;2.13;;;1.50;;
422;SDS011;198;48.752;9.180;2022-11-15T01:03:39;3.17;;;1.70;;
422;SDS011;198;48.752;9.180;2022-11-15T01:06:05;12.17;;;1.60;;
422;SDS011;198;48.752;9.180;2022-11-15T01:08:34;3.60;;;2.00;;
422;SDS011;198;48.752;9.180;2022-11-15T01:11:01;4.40;;;2.00;;
422;SDS011;198;48.752;9.180;2022-11-15T01:13:31;2.80;;;1.63;;
422;SDS011;198;48.752;9.180;2022-11-15T01:15:59;4.13;;;2.00;;
422;SDS011;198;48.752;9.180;2022-11-15T01:18:30;7.10;;;1.90;;
422;SDS011;198;48.752;9.180;2022-11-15T01:20:56;1.90;;;1.80;;
422;SDS011;198;48.752;9.180;2022-11-15T01:23:21;4.00;;;2.20;;
422;SDS011;198;48.752;9.180;2022-11-15T01:25:47;9.23;;;2.37;;
422;SDS011;198;48.752;9.180;2022-11-15T01:28:12;3.23;;;1.67;;
422;SDS011;198;48.752;9.180;2022-11-15T01:30:38;4.10;;;2.00;;
422;SDS011;198;48.752;9.180;2022-11-15T01:33:03;2.43;;;1.70;;
422;SDS011;198;48.752;9.180;2022-11-15T01:35:29;5.07;;;2.40;;
422;SDS011;198;48.752;9.180;2022-11-15T01:37:54;2.30;;;2.00;;
422;SDS011;198;48.752;9.180;2022-11-15T01:40:20;6.70;;;2.27;;
422;SDS011;198;48.752;9.180;2022-11-15T01:42:45;8.50;;;2.00;;
422;SDS011;198;48.752;9.180;2022-11-15T01:45:13;3.70;;;2.07;;
422;SDS011;198;48.752;9.180;2022-11-15T01:47:40;5.47;;;2.47;;
422;SDS011;198;48.752;9.180;2022-11-15T01:50:14;5.77;;;2.07;;
422;SDS011;198;48.752;9.180;2022-11-15T01:52:43;3.40;;;2.10;;
422;SDS011;198;48.752;9.180;2022-11-15T01:55:16;4.77;;;2.60;;
422;SDS011;198;48.752;9.180;2022-11-15T01:57:43;3.40;;;1.80;;
422;SDS011;198;48.752;9.180;2022-11-15T02:00:12;11.20;;;2.23;;
422;SDS011;198;48.752;9.180;2022-11-15T02:02:38;4.93;;;1.90;;
422;SDS011;198;48.752;9.180;2022-11-15T02:05:05;6.73;;;1.87;;
422;SDS011;198;48.752;9.180;2022-11-15T02:07:31;3.60;;;1.90;;
422;SDS011;198;48.752;9.180;2022-11-15T02:09:59;2.70;;;1.70;;
422;SDS011;198;48.752;9.180;2022-11-15T02:12:32;8.60;;;2.10;;
422;SDS011;198;48.752;9.180;2022-11-15T02:14:58;4.97;;;2.03;;
422;SDS011;198;48.752;9.180;2022-11-15T02:25:57;4.30;;;2.07;;
422;SDS011;198;48.752;9.180;2022-11-15T02:37:28;9.43;;;2.50;;
422;SDS011;198;48.752;9.180;2022-11-15T02:42:53;5.30;;;1.83;;
422;SDS011;198;48.752;9.180;2022-11-15T02:46:07;8.90;;;2.90;;
422;SDS011;198;48.752;9.180;2022-11-15T02:49:09;4.77;;;2.20;;
422;SDS011;198;48.752;9.180;2022-11-15T02:51:36;2.10;;;1.97;;
422;SDS011;198;48.752;9.180;2022-11-15T02:54:02;4.60;;;2.10;;
422;SDS011;198;48.752;9.180;2022-11-15T02:56:28;4.40;;;2.00;;
422;SDS011;198;48.752;9.180;2022-11-15T03:04:23;5.40;;;1.93;;
422;SDS011;198;48.752;9.180;2022-11-15T03:07:13;3.23;;;2.10;;
422;SDS011;198;48.752;9.180;2022-11-15T03:15:29;9.80;;;1.87;;
422;SDS011;198;48.752;9.180;2022-11-15T03:18:15;3.37;;;2.00;;
422;SDS011;198;48.752;9.180;2022-11-15T03:20:44;2.00;;;1.73;;
422;SDS011;198;48.752;9.180;2022-11-15T03:23:10;2.03;;;1.73;;
422;SDS011;198;48.752;9.180;2022-11-15T03:25:41;5.30;;;1.83;;
422;SDS011;198;48.752;9.180;2022-11-15T03:28:11;1.80;;;1.73;;
422;SDS011;198;48.752;9.180;2022-11-15T03:30:41;3.80;;;2.30;;
422;SDS011;198;48.752;9.180;2022-11-15T03:33:08;3.00;;;2.13;;
422;SDS011;198;48.752;9.180;2022-11-15T03:35:37;1.73;;;1.70;;
422;SDS011;198;48.752;9.180;2022-11-15T03:40:49;4.60;;;2.00;;
422;SDS011;198;48.752;9.180;2022-11-15T03:43:39;3.10;;;1.50;;
422;SDS011;198;48.752;9.180;2022-11-15T03:46:16;5.70;;;2.20;;
422;SDS011;198;48.752;9.180;2022-11-15T03:48:49;10.53;;;1.77;;
422;SDS011;198;48.752;9.180;2022-11-15T03:51:17;8.50;;;1.77;;
422;SDS011;198;48.752;9.180;2022-11-15T03:53:43;1.80;;;1.73;;
422;SDS011;198;48.752;9.180;2022-11-15T03:56:08;6.57;;;2.67;;
422;SDS011;198;48.752;9.180;2022-11-15T03:58:34;3.13;;;2.43;;
422;SDS011;198;48.752;9.180;2022-11-15T04:00:59;3.10;;;1.67;;
422;SDS011;198;48.752;9.180;2022-11-15T04:03:25;5.30;;;2.20;;
422;SDS011;198;48.752;9.180;2022-11-15T04:05:51;2.20;;;1.80;;
422;SDS011;198;48.752;9.180;2022-11-15T04:08:16;4.53;;;1.93;;
422;SDS011;198;48.752;9.180;2022-11-15T04:10:42;2.63;;;1.93;;
422;SDS011;198;48.752;9.180;2022-11-15T04:13:07;3.33;;;2.27;;
422;SDS011;198;48.752;9.180;2022-11-15T04:15:33;9.83;;;2.63;;
422;SDS011;198;48.752;9.180;2022-11-15T04:17:59;1.90;;;1.80;;
422;SDS011;198;48.752;9.180;2022-11-15T04:20:28;3.60;;;2.20;;
422;SDS011;198;48.752;9.180;2022-11-15T04:23:18;8.03;;;2.20;;
422;SDS011;198;48.752;9.180;2022-11-15T04:26:11;2.73;;;1.80;;
422;SDS011;198;48.752;9.180;2022-11-15T04:28:40;5.20;;;2.47;;
422;SDS011;198;48.752;9.180;2022-11-15T04:31:25;2.93;;;2.20;;
422;SDS011;198;48.752;9.180;2022-11-15T04:33:51;5.23;;;1.80;;
422;SDS011;198;48.752;9.180;2022-11-15T04:36:17;9.60;;;2.27;;
422;SDS011;198;48.752;9.180;2022-11-15T04:39:02;5.30;;;2.07;;
422;SDS011;198;48.752;9.180;2022-11-15T04:41:27;3.53;;;1.97;;
422;SDS011;198;48.752;9.180;2022-11-15T04:43:54;5.77;;;2.07;;
422;SDS011;198;48.752;9.180;2022-11-15T04:46:20;3.87;;;1.60;;
422;SDS011;198;48.752;9.180;2022-11-15T04:48:46;2.80;;;1.80;;
422;SDS011;198;48.752;9.180;2022-11-15T04:51:11;5.80;;;1.60;;
422;SDS011;198;48.752;9.180;2022-11-15T04:53:37;4.63;;;2.53;;
422;SDS011;198;48.752;9.180;2022-11-15T04:56:03;3.07;;;1.20;;
422;SDS011;198;48.752;9.180;2022-11-15T04:58:28;1.90;;;1.60;;
422;SDS011;198;48.752;9.180;2022-11-15T05:00:54;3.40;;;1.80;;
422;SDS011;198;48.752;9.180;2022-11-15T05:03:19;1.37;;;1.33;;
422;SDS011;198;48.752;9.180;2022-11-15T05:06:04;6.00;;;1.67;;
422;SDS011;198;48.752;9.180;2022-11-15T05:08:30;2.87;;;1.70;;
422;SDS011;198;48.752;9.180;2022-11-15T05:10:55;1.93;;;1.53;;
422;SDS011;198;48.752;9.180;2022-11-15T05:13:21;5.90;;;1.70;;
422;SDS011;198;48.752;9.180;2022-11-15T05:15:47;6.73;;;1.97;;
422;SDS011;198;48.752;9.180;2022-11-15T05:18:12;4.13;;;1.73;;
422;SDS011;198;48.752;9.180;2022-11-15T05:20:38;7.60;;;1.50;;
422;SDS011;198;48.752;9.180;2022-11-15T05:23:04;1.80;;;1.50;;
422;SDS011;198;48.752;9.180;2022-11-15T05:25:29;1.60;;;1.33;;
422;SDS011;198;48.752;9.180;2022-11-15T05:27:55;1.57;;;1.30;;
422;SDS011;198;48.752;9.180;2022-11-15T05:30:20;3.73;;;1.53;;
422;SDS011;198;48.752;9.180;2022-11-15T05:32:46;9.43;;;1.80;;
422;SDS011;198;48.752;9.180;2022-11-15T05:35:15;6.13;;;1.73;;
422;SDS011;198;48.752;9.180;2022-11-15T05:37:46;1.83;;;1.50;;
422;SDS011;198;48.752;9.180;2022-11-15T05:40:12;2.20;;;1.40;;
422;SDS011;198;48.752;9.180;2022-11-15T05:42:38;4.67;;;1.70;;
422;SDS011;198;48.752;9.180;2022-11-15T05:45:04;1.60;;;1.40;;
422;SDS011;198;48.752;9.180;2022-11-15T05:47:31;5.77;;;1.97;;
422;SDS011;198;48.752;9.180;2022-11-15T05:49:59;2.10;;;1.37;;
422;SDS011;198;48.752;9.180;2022-11-15T05:52:25;1.73;;;1.50;;
422;SDS011;198;48.752;9.180;2022-11-15T05:54:55;4.67;;;1.90;;
422;SDS011;198;48.752;9.180;2022-11-15T05:57:21;1.50;;;1.37;;
422;SDS011;198;48.752;9.180;2022-11-15T05:59:47;1.37;;;1.30;;
422;SDS011;198;48.752;9.180;2022-11-15T06:02:12;1.67;;;1.30;;
422;SDS011;198;48.752;9.180;2022-11-15T06:04:38;6.47;;;2.03;;
422;SDS011;198;48.752;9.180;2022-11-15T06:07:03;3.27;;;2.07;;
422;SDS011;198;48.752;9.180;2022-11-15T06:09:29;4.00;;;2.20;;
422;SDS011;198;48.752;9.180;2022-11-15T06:11:55;5.33;;;2.07;;
422;SDS011;198;48.752;9.180;2022-11-15T06:14:20;2.73;;;2.30;;
422;SDS011;198;48.752;9.180;2022-11-15T06:16:46;4.57;;;2.17;;
422;SDS011;198;48.752;9.180;2022-11-15T06:19:11;2.40;;;1.70;;
422;SDS011;198;48.752;9.180;2022-11-15T06:21:37;2.70;;;2.03;;
422;SDS011;198;48.752;9.180;2022-11-15T06:24:02;8.80;;;2.60;;
422;SDS011;198;48.752;9.180;2022-11-15T06:26:28;4.80;;;2.77;;
422;SDS011;198;48.752;9.180;2022-11-15T06:28:54;4.40;;;2.63;;
422;SDS011;198;48.752;9.180;2022-11-15T06:31:19;8.20;;;2.97;;
422;SDS011;198;48.752;9.180;2022-11-15T06:33:46;5.20;;;2.93;;
422;SDS011;198;48.752;9.180;2022-11-15T06:36:12;4.20;;;2.10;;
422;SDS011;198;48.752;9.180;2022-11-15T06:38:42;4.90;;;2.60;;
422;SDS011;198;48.752;9.180;2022-11-15T06:41:09;8.63;;;2.97;;
422;SDS011;198;48.752;9.180;2022-11-15T06:43:35;5.10;;;2.33;;
422;SDS011;198;48.752;9.180;2022-11-15T06:46:02;9.93;;;2.97;;
422;SDS011;198;48.752;9.180;2022-11-15T06:48:28;5.60;;;3.10;;
422;SDS011;198;48.752;9.180;2022-11-15T06:50:56;4.43;;;3.20;;
422;SDS011;198;48.752;9.180;2022-11-15T06:53:23;4.87;;;3.10;;
422;SDS011;198;48.752;9.180;2022-11-15T06:55:49;3.33;;;2.00;;
422;SDS011;198;48.752;9.180;2022-11-15T06:58:15;9.40;;;2.43;;
422;SDS011;198;48.752;9.180;2022-11-15T07:00:41;6.47;;;2.70;;
422;SDS011;198;48.752;9.180;2022-11-15T07:03:07;4.47;;;2.67;;
422;SDS011;198;48.752;9.180;2022-11-15T07:05:34;5.43;;;2.33;;
422;SDS011;198;48.752;9.180;2022-11-15T07:07:59;4.43;;;2.13;;
422;SDS011;198;48.752;9.180;2022-11-15T07:10:25;8.50;;;2.97;;
422;SDS011;198;48.752;9.180;2022-11-15T07:12:52;6.57;;;2.90;;
422;SDS011;198;48.752;9.180;2022-11-15T07:15:18;5.70;;;2.50;;
422;SDS011;198;48.752;9.180;2022-11-15T07:17:45;6.00;;;2.73;;
422;SDS011;198;48.752;9.180;2022-11-15T07:20:11;6.87;;;2.37;;
422;SDS011;198;48.752;9.180;2022-11-15T07:22:38;7.50;;;2.80;;
422;SDS011;198;48.752;9.180;2022-11-15T07:25:04;4.43;;;2.33;;
422;SDS011;198;48.752;9.180;2022-11-15T07:27:30;3.10;;;2.43;;
422;SDS011;198;48.752;9.180;2022-11-15T07:29:55;3.80;;;2.50;;
422;SDS011;198;48.752;9.180;2022-11-15T07:32:21;4.20;;;2.63;;
422;SDS011;198;48.752;9.180;2022-11-15T07:34:46;3.83;;;2.50;;
422;SDS011;198;48.752;9.180;2022-11-15T07:37:12;12.10;;;3.17;;
422;SDS011;198;48.752;9.180;2022-11-15T07:39:37;3.17;;;1.90;;
422;SDS011;198;48.752;9.180;2022-11-15T07:42:03;3.67;;;2.60;;
422;SDS011;198;48.752;9.180;2022-11-15T07:44:48;4.93;;;3.10;;
422;SDS011;198;48.752;9.180;2022-11-15T07:47:13;5.13;;;1.87;;
422;SDS011;198;48.752;9.180;2022-11-15T07:49:39;4.43;;;2.10;;
422;SDS011;198;48.752;9.180;2022-11-15T07:52:04;3.03;;;2.07;;
422;SDS011;198;48.752;9.180;2022-11-15T07:54:30;3.67;;;1.77;;
422;SDS011;198;48.752;9.180;2022-11-15T07:56:55;5.07;;;1.97;;
422;SDS011;198;48.752;9.180;2022-11-15T07:59:21;3.67;;;1.60;;
422;SDS011;198;48.752;9.180;2022-11-15T08:01:46;2.87;;;1.90;;
422;SDS011;198;48.752;9.180;2022-11-15T08:04:12;4.73;;;1.97;;
422;SDS011;198;48.752;9.180;2022-11-15T08:06:38;4.10;;;2.00;;
422;SDS011;198;48.752;9.180;2022-11-15T08:09:03;4.77;;;2.27;;
422;SDS011;198;48.752;9.180;2022-11-15T08:11:29;2.20;;;1.60;;
422;SDS011;198;48.752;9.180;2022-11-15T08:13:54;2.90;;;1.80;;
422;SDS011;198;48.752;9.180;2022-11-15T08:16:20;3.30;;;1.80;;
422;SDS011;198;48.752;9.180;2022-11-15T08:18:45;2.60;;;1.23;;
422;SDS011;198;48.752;9.180;2022-11-15T08:21:12;5.53;;;1.87;;
422;SDS011;198;48.752;9.180;2022-11-15T08:23:42;7.87;;;2.17;;
422;SDS011;198;48.752;9.180;2022-11-15T08:26:08;3.30;;;1.80;;
422;SDS011;198;48.752;9.180;2022-11-15T08:28:33;3.63;;;2.30;;
422;SDS011;198;48.752;9.180;2022-11-15T08:30:59;12.53;;;2.20;;
422;SDS011;198;48.752;9.180;2022-11-15T08:33:24;4.37;;;2.20;;
422;SDS011;198;48.752;9.180;2022-11-15T08:35:50;4.70;;;1.60;;
422;SDS011;198;48.752;9.180;2022-11-15T08:38:15;5.30;;;1.43;;
422;SDS011;198;48.752;9.180;2022-11-15T08:40:41;3.30;;;1.73;;
422;SDS011;198;48.752;9.180;2022-11-15T08:43:06;1.80;;;1.40;;
422;SDS011;198;48.752;9.180;2022-11-15T08:45:33;2.17;;;1.60;;
422;SDS011;198;48.752;9.180;2022-11-15T08:48:00;2.00;;;1.60;;
422;SDS011;198;48.752;9.180;2022-11-15T08:50:27;1.30;;;1.20;;
422;SDS011;198;48.752;9.180;2022-11-15T08:52:52;3.43;;;1.83;;
422;SDS011;198;48.752;9.180;2022-11-15T08:55:18;3.43;;;1.40;;
422;SDS011;198;48.752;9.180;2022-11-15T08:57:44;3.43;;;2.07;;
422;SDS011;198;48.752;9.180;2022-11-15T09:00:10;14.70;;;1.80;;
422;SDS011;198;48.752;9.180;2022-11-15T09:02:39;2.90;;;1.30;;
422;SDS011;198;48.752;9.180;2022-11-15T09:05:05;4.73;;;1.60;;
422;SDS011;198;48.752;9.180;2022-11-15T09:07:31;2.50;;;1.60;;
422;SDS011;198;48.752;9.180;2022-11-15T09:09:57;2.80;;;2.10;;
422;SDS011;198;48.752;9.180;2022-11-15T09:12:24;3.73;;;1.50;;
422;SDS011;198;48.752;9.180;2022-11-15T09:14:50;3.00;;;1.70;;
422;SDS011;198;48.752;9.180;2022-11-15T09:17:16;5.50;;;1.97;;
422;SDS011;198;48.752;9.180;2022-11-15T09:19:41;1.47;;;1.37;;
422;SDS011;198;48.752;9.180;2022-11-15T09:22:07;1.70;;;1.37;;
422;SDS011;198;48.752;9.180;2022-11-15T09:24:33;2.80;;;1.60;;
422;SDS011;198;48.752;9.180;2022-11-15T09:26:59;3.27;;;2.17;;
422;SDS011;198;48.752;9.180;2022-11-15T09:29:25;4.33;;;1.70;;
422;SDS011;198;48.752;9.180;2022-11-15T09:31:54;3.30;;;1.30;;
422;SDS011;198;48.752;9.180;2022-11-15T09:34:19;8.50;;;1.47;;
422;SDS011;198;48.752;9.180;2022-11-15T09:36:46;2.47;;;1.70;;
422;SDS011;198;48.752;9.180;2022-11-15T09:39:11;3.03;;;1.67;;
422;SDS011;198;48.752;9.180;2022-11-15T09:44:44;2.33;;;1.70;;
422;SDS011;198;48.752;9.180;2022-11-15T09:50:14;5.50;;;1.83;;
422;SDS011;198;48.752;9.180;2022-11-15T09:52:43;5.03;;;2.03;;
422;SDS011;198;48.752;9.180;2022-11-15T09:55:10;3.57;;;2.10;;
422;SDS011;198;48.752;9.180;2022-11-15T10:05:39;13.80;;;1.73;;
422;SDS011;198;48.752;9.180;2022-11-15T10:08:13;2.77;;;2.00;;
422;SDS011;198;48.752;9.180;2022-11-15T10:10:49;2.20;;;1.73;;
422;SDS011;198;48.752;9.180;2022-11-15T10:13:22;8.30;;;2.07;;
422;SDS011;198;48.752;9.180;2022-11-15T10:15:59;11.13;;;3.70;;
422;SDS011;198;48.752;9.180;2022-11-15T10:21:17;5.97;;;2.20;;
422;SDS011;198;48.752;9.180;2022-11-15T10:23:45;6.13;;;2.20;;
422;SDS011;198;48.752;9.180;2022-11-15T10:26:12;3.23;;;2.13;;
422;SDS011;198;48.752;9.180;2022-11-15T10:28:41;4.20;;;2.07;;
422;SDS011;198;48.752;9.180;2022-11-15T10:31:23;2.80;;;2.50;;
422;SDS011;198;48.752;9.180;2022-11-15T10:33:50;3.13;;;1.90;;
422;SDS011;198;48.752;9.180;2022-11-15T10:36:20;5.10;;;2.43;;
422;SDS011;198;48.752;9.180;2022-11-15T10:41:15;4.97;;;2.90;;
422;SDS011;198;48.752;9.180;2022-11-15T10:46:46;2.73;;;2.33;;
422;SDS011;198;48.752;9.180;2022-11-15T10:49:22;4.50;;;2.10;;
422;SDS011;198;48.752;9.180;2022-11-15T10:57:12;13.93;;;2.90;;
422;SDS011;198;48.752;9.180;2022-11-15T10:59:43;5.63;;;2.70;;
422;SDS011;198;48.752;9.180;2022-11-15T11:02:24;5.67;;;2.97;;
422;SDS011;198;48.752;9.180;2022-11-15T11:04:58;5.23;;;2.93;;
422;SDS011;198;48.752;9.180;2022-11-15T11:07:28;6.23;;;3.00;;
422;SDS011;198;48.752;9.180;2022-11-15T11:10:38;5.17;;;2.93;;
422;SDS011;198;48.752;9.180;2022-11-15T11:12:46;4.20;;;2.40;;
422;SDS011;198;48.752;9.180;2022-11-15T11:15:12;8.30;;;2.30;;
422;SDS011;198;48.752;9.180;2022-11-15T11:31:12;14.43;;;3.73;;
422;SDS011;198;48.752;9.180;2022-11-15T11:37:29;4.93;;;2.53;;
422;SDS011;198;48.752;9.180;2022-11-15T11:40:08;5.20;;;2.70;;
422;SDS011;198;48.752;9.180;2022-11-15T11:43:07;3.90;;;2.40;;
422;SDS011;198;48.752;9.180;2022-11-15T11:48:44;6.27;;;3.10;;
422;SDS011;198;48.752;9.180;2022-11-15T11:51:28;10.70;;;3.30;;
422;SDS011;198;48.752;9.180;2022-11-15T11:54:16;5.67;;;2.63;;
422;SDS011;198;48.752;9.180;2022-11-15T11:56:56;7.63;;;2.43;;
422;SDS011;198;48.752;9.180;2022-11-15T12:02:24;7.60;;;2.53;;
422;SDS011;198;48.752;9.180;2022-11-15T12:05:18;12.00;;;2.47;;
422;SDS011;198;48.752;9.180;2022-11-15T12:07:52;6.20;;;2.50;;
422;SDS011;198;48.752;9.180;2022-11-15T12:10:28;2.90;;;1.90;;
422;SDS011;198;48.752;9.180;2022-11-15T12:13:01;13.10;;;2.30;;
422;SDS011;198;48.752;9.180;2022-11-15T12:15:45;3.63;;;1.97;;
422;SDS011;198;48.752;9.180;2022-11-15T12:18:22;3.73;;;2.00;;
422;SDS011;198;48.752;9.180;2022-11-15T12:21:13;3.53;;;1.70;;
422;SDS011;198;48.752;9.180;2022-11-15T12:23:52;4.10;;;1.93;;
422;SDS011;198;48.752;9.180;2022-11-15T12:26:24;4.30;;;2.53;;
422;SDS011;198;48.752;9.180;2022-11-15T12:29:13;3.60;;;2.10;;
422;SDS011;198;48.752;9.180;2022-11-15T12:31:44;5.13;;;2.70;;
422;SDS011;198;48.752;9.180;2022-11-15T12:36:45;4.53;;;2.37;;
422;SDS011;198;48.752;9.180;2022-11-15T12:39:11;4.27;;;2.23;;
422;SDS011;198;48.752;9.180;2022-11-15T12:41:39;7.33;;;2.73;;
422;SDS011;198;48.752;9.180;2022-11-15T12:44:12;4.27;;;2.33;;
422;SDS011;198;48.752;9.180;2022-11-15T13:17:48;10.23;;;3.10;;
422;SDS011;198;48.752;9.180;2022-11-15T13:22:41;3.03;;;2.40;;
422;SDS011;198;48.752;9.180;2022-11-15T13:25:30;7.80;;;3.23;;
422;SDS011;198;48.752;9.180;2022-11-15T13:30:52;6.80;;;3.37;;
422;SDS011;198;48.752;9.180;2022-11-15T13:33:28;7.37;;;3.67;;
422;SDS011;198;48.752;9.180;2022-11-15T13:36:01;6.80;;;2.90;;
422;SDS011;198;48.752;9.180;2022-11-15T13:38:33;9.07;;;3.73;;
422;SDS011;198;48.752;9.180;2022-11-15T13:41:10;7.43;;;3.07;;
422;SDS011;198;48.752;9.180;2022-11-15T13:43:45;7.97;;;2.63;;
422;SDS011;198;48.752;9.180;2022-11-15T13:48:44;6.27;;;3.40;;
422;SDS011;198;48.752;9.180;2022-11-15T13:51:16;3.90;;;2.13;;
422;SDS011;198;48.752;9.180;2022-11-15T13:54:42;14.63;;;2.97;;
422;SDS011;198;48.752;9.180;2022-11-15T13:56:48;4.30;;;2.50;;
422;SDS011;198;48.752;9.180;2022-11-15T13:59:37;5.47;;;3.30;;
422;SDS011;198;48.752;9.180;2022-11-15T14:02:27;8.93;;;3.30;;
422;SDS011;198;48.752;9.180;2022-11-15T14:07:30;9.17;;;3.13;;
422;SDS011;198;48.752;9.180;2022-11-15T14:09:55;9.53;;;3.60;;
422;SDS011;198;48.752;9.180;2022-11-15T14:12:22;7.03;;;4.10;;
422;SDS011;198;48.752;9.180;2022-11-15T14:14:50;11.00;;;3.63;;
422;SDS011;198;48.752;9.180;2022-11-15T14:17:20;12.10;;;3.57;;
422;SDS011;198;48.752;9.180;2022-11-15T14:19:58;7.30;;;3.87;;
422;SDS011;198;48.752;9.180;2022-11-15T14:22:24;9.50;;;3.43;;
422;SDS011;198;48.752;9.180;2022-11-15T14:30:40;6.70;;;3.77;;
422;SDS011;198;48.752;9.180;2022-11-15T14:33:40;6.03;;;3.37;;
422;SDS011;198;48.752;9.180;2022-11-15T14:36:06;11.33;;;3.60;;
422;SDS011;198;48.752;9.180;2022-11-15T14:38:39;7.47;;;3.10;;
422;SDS011;198;48.752;9.180;2022-11-15T14:41:05;12.57;;;4.07;;
422;SDS011;198;48.752;9.180;2022-11-15T14:43:35;6.30;;;3.20;;
422;SDS011;198;48.752;9.180;2022-11-15T14:46:00;7.53;;;3.30;;
422;SDS011;198;48.752;9.180;2022-11-15T14:48:26;12.60;;;3.00;;
422;SDS011;198;48.752;9.180;2022-11-15T14:50:52;8.33;;;4.63;;
422;SDS011;198;48.752;9.180;2022-11-15T14:53:17;4.53;;;2.70;;
422;SDS011;198;48.752;9.180;2022-11-15T14:55:43;6.00;;;3.17;;
422;SDS011;198;48.752;9.180;2022-11-15T14:58:09;8.70;;;3.00;;
422;SDS011;198;48.752;9.180;2022-11-15T15:00:35;8.93;;;3.20;;
422;SDS011;198;48.752;9.180;2022-11-15T15:03:03;7.50;;;3.60;;
422;SDS011;198;48.752;9.180;2022-11-15T15:05:37;9.47;;;3.27;;
422;SDS011;198;48.752;9.180;2022-11-15T15:08:07;5.57;;;3.03;;
422;SDS011;198;48.752;9.180;2022-11-15T15:10:34;8.50;;;3.70;;
422;SDS011;198;48.752;9.180;2022-11-15T15:15:44;6.37;;;3.63;;
422;SDS011;198;48.752;9.180;2022-11-15T15:18:10;6.20;;;4.00;;
422;SDS011;198;48.752;9.180;2022-11-15T15:20:36;10.57;;;4.17;;
422;SDS011;198;48.752;9.180;2022-11-15T15:23:04;10.97;;;4.27;;
422;SDS011;198;48.752;9.180;2022-11-15T15:25:32;13.33;;;5.30;;
422;SDS011;198;48.752;9.180;2022-11-15T15:27:59;9.00;;;4.57;;
422;SDS011;198;48.752;9.180;2022-11-15T15:30:27;15.47;;;4.47;;
422;SDS011;198;48.752;9.180;2022-11-15T15:32:53;6.90;;;4.47;;
422;SDS011;198;48.752;9.180;2022-11-15T15:35:19;8.30;;;4.50;;
422;SDS011;198;48.752;9.180;2022-11-15T15:37:45;9.00;;;3.90;;
422;SDS011;198;48.752;9.180;2022-11-15T15:40:19;12.80;;;5.20;;
422;SDS011;198;48.752;9.180;2022-11-15T15:42:46;9.87;;;4.50;;
422;SDS011;198;48.752;9.180;2022-11-15T15:45:12;12.60;;;4.63;;
422;SDS011;198;48.752;9.180;2022-11-15T15:47:38;9.33;;;4.83;;
422;SDS011;198;48.752;9.180;2022-11-15T15:50:11;8.60;;;5.00;;
422;SDS011;198;48.752;9.180;2022-11-15T15:52:46;7.47;;;4.60;;
422;SDS011;198;48.752;9.180;2022-11-15T15:55:11;10.27;;;4.40;;
422;SDS011;198;48.752;9.180;2022-11-15T15:57:37;13.90;;;5.77;;
422;SDS011;198;48.752;9.180;2022-11-15T16:00:03;14.10;;;5.80;;
422;SDS011;198;48.752;9.180;2022-11-15T16:02:29;10.30;;;4.77;;
422;SDS011;198;48.752;9.180;2022-11-15T16:04:55;12.20;;;4.13;;
422;SDS011;198;48.752;9.180;2022-11-15T16:07:21;10.20;;;4.53;;
422;SDS011;198;48.752;9.180;2022-11-15T16:09:48;11.77;;;5.10;;
422;SDS011;198;48.752;9.180;2022-11-15T16:12:31;14.93;;;5.90;;
422;SDS011;198;48.752;9.180;2022-11-15T16:14:59;13.97;;;4.90;;
422;SDS011;198;48.752;9.180;2022-11-15T16:17:32;12.33;;;4.10;;
422;SDS011;198;48.752;9.180;2022-11-15T16:20:02;8.50;;;5.10;;
422;SDS011;198;48.752;9.180;2022-11-15T16:22:28;6.93;;;3.90;;
422;SDS011;198;48.752;9.180;2022-11-15T16:24:54;8.50;;;5.10;;
422;SDS011;198;48.752;9.180;2022-11-15T16:27:20;17.97;;;4.77;;
422;SDS011;198;48.752;9.180;2022-11-15T16:29:46;7.50;;;4.33;;
422;SDS011;198;48.752;9.180;2022-11-15T16:32:12;10.27;;;4.60;;
422;SDS011;198;48.752;9.180;2022-11-15T16:34:39;8.47;;;4.90;;
422;SDS011;198;48.752;9.180;2022-11-15T16:37:04;9.03;;;5.33;;
422;SDS011;198;48.752;9.180;2022-11-15T16:39:31;8.17;;;4.50;;
422;SDS011;198;48.752;9.180;2022-11-15T16:41:57;11.83;;;4.10;;
422;SDS011;198;48.752;9.180;2022-11-15T16:44:23;9.20;;;4.47;;
422;SDS011;198;48.752;9.180;2022-11-15T16:46:49;9.87;;;4.67;;
422;SDS011;198;48.752;9.180;2022-11-15T16:49:19;7.20;;;4.03;;
422;SDS011;198;48.752;9.180;2022-11-15T16:51:46;9.03;;;3.80;;
422;SDS011;198;48.752;9.180;2022-11-15T16:54:12;9.30;;;4.67;;
422;SDS011;198;48.752;9.180;2022-11-15T16:56:38;6.63;;;3.70;;
422;SDS011;198;48.752;9.180;2022-11-15T16:59:04;8.40;;;4.30;;
422;SDS011;198;48.752;9.180;2022-11-15T17:04:00;7.77;;;4.17;;
422;SDS011;198;48.752;9.180;2022-11-15T17:06:37;14.07;;;3.73;;
422;SDS011;198;48.752;9.180;2022-11-15T17:09:04;13.00;;;3.50;;
422;SDS011;198;48.752;9.180;2022-11-15T17:11:31;17.83;;;4.70;;
422;SDS011;198;48.752;9.180;2022-11-15T17:13:57;10.77;;;4.20;;
422;SDS011;198;48.752;9.180;2022-11-15T17:16:23;9.93;;;3.80;;
422;SDS011;198;48.752;9.180;2022-11-15T17:18:50;9.50;;;3.87;;
422;SDS011;198;48.752;9.180;2022-11-15T17:21:16;12.50;;;5.70;;
422;SDS011;198;48.752;9.180;2022-11-15T17:23:44;10.10;;;4.13;;
422;SDS011;198;48.752;9.180;2022-11-15T17:26:10;11.23;;;4.57;;
422;SDS011;198;48.752;9.180;2022-11-15T17:28:37;14.97;;;4.80;;
422;SDS011;198;48.752;9.180;2022-11-15T17:31:09;12.93;;;4.23;;
422;SDS011;198;48.752;9.180;2022-11-15T17:33:37;10.80;;;4.87;;
422;SDS011;198;48.752;9.180;2022-11-15T17:36:05;12.70;;;4.50;;
422;SDS011;198;48.752;9.180;2022-11-15T17:38:32;12.63;;;5.83;;
422;SDS011;198;48.752;9.180;2022-11-15T17:43:36;11.73;;;5.93;;
422;SDS011;198;48.752;9.180;2022-11-15T17:46:06;10.50;;;5.00;;
422;SDS011;198;48.752;9.180;2022-11-15T17:48:36;11.10;;;5.50;;
422;SDS011;198;48.752;9.180;2022-11-15T17:51:02;16.03;;;5.10;;
422;SDS011;198;48.752;9.180;2022-11-15T17:53:39;11.90;;;4.90;;
422;SDS011;198;48.752;9.180;2022-11-15T17:56:07;10.17;;;5.90;;
422;SDS011;198;48.752;9.180;2022-11-15T17:58:50;14.03;;;5.33;;
422;SDS011;198;48.752;9.180;2022-11-15T18:01:21;11.40;;;6.00;;
422;SDS011;198;48.752;9.180;2022-11-15T18:03:47;27.97;;;5.90;;
422;SDS011;198;48.752;9.180;2022-11-15T18:06:13;13.93;;;5.50;;
422;SDS011;198;48.752;9.180;2022-11-15T18:08:40;12.87;;;5.50;;
422;SDS011;198;48.752;9.180;2022-11-15T18:11:09;11.43;;;5.47;;
422;SDS011;198;48.752;9.180;2022-11-15T18:13:35;20.07;;;5.33;;
422;SDS011;198;48.752;9.180;2022-11-15T18:16:05;7.40;;;4.40;;